Green Island, Australia
Current Conditions -  °F | °C
As of 10:00 AM on Wednesday 22 Oct 2014 (Local Time) from YBCS Reporting Station
Scattered Clouds Scattered Clouds  
Wind Chill: 82°   Ceiling: Unl
Heat Index: 82°   Visibility: 6mi
Dew Point: 57°   Wind: 22mph
Humidity: 42%   Direction: 140°SE
Pressure: 30.09"   Gusts: NA
Location:  16.77°S, 145.97°E
Report Text: YBCS 220000Z 14019KT 9999 FEW030 SCT039 28/14 Q1019
Loading
Personal Weather Stations






























Interactive Weather Map
Tropical Storm Tracking
New forecast layout! Learn more

10-Day Weather Forecast

Advertisements
Track Severe Weather on mobile